Time;durP1;ratioP1;P1;durP2;ratioP2;P2;SDS_P1;SDS_P2;PMS_P1;PMS_P2;Temp;Humidity;BMP_temperature;BMP_pressure;BME280_temperature;BME280_humidity;BME280_pressure;Samples;Min_cycle;Max_cycle;Signal;HPM_P1;HPM_P2
2023/03/07 12:11:56;;;;;;;5.28;2.72;;;;;;;5.09;54.17;97493.59;5025105;28;20373;-78
2023/03/07 12:14:32;;;;;;;7.63;3.75;;;;;;;5.17;53.87;97457.63;5025630;28;20484;-78
2023/03/07 12:17:11;;;;;;;7.78;3.63;;;;;;;5.40;53.39;97475.44;5024225;28;20052;-78
2023/03/07 12:19:58;;;;;;;5.45;3.13;;;;;;;5.20;53.51;97465.31;5022249;28;20053;-77
2023/03/07 12:22:28;;;;;;;7.97;3.90;;;;;;;5.36;53.46;97480.41;5023912;28;20511;-77
2023/03/07 12:25:20;;;;;;;7.43;3.75;;;;;;;5.06;53.12;97437.41;5024603;28;20058;-78
2023/03/07 12:28:00;;;;;;;6.88;3.92;;;;;;;5.38;53.23;97472.94;5023682;28;20054;-78
2023/03/07 12:30:31;;;;;;;;;;;;;;;5.40;53.10;97475.44;5024063;28;20422;-78
2023/03/07 12:32:58;;;;;;;5.20;2.78;;;;;;;5.22;53.32;97451.66;5023761;27;19925;-78
2023/03/07 12:35:30;;;;;;;7.00;3.38;;;;;;;5.28;54.20;97470.59;5022775;28;20065;-78
2023/03/07 12:38:04;;;;;;;5.22;3.50;;;;;;;5.20;54.02;97459.09;5088882;27;20051;-78
2023/03/07 12:40:39;;;;;;;5.13;3.28;;;;;;;5.21;53.75;97450.81;5064112;27;20056;-78
2023/03/07 12:43:14;;;;;;;5.07;3.00;;;;;;;5.11;53.75;97442.22;5023593;28;20057;-78
2023/03/07 12:45:47;;;;;;;6.68;4.25;;;;;;;5.34;54.88;97451.97;5023629;28;20054;-78
2023/03/07 12:48:22;;;;;;;6.10;3.08;;;;;;;5.42;53.62;97443.72;5024099;28;20115;-78
2023/03/07 12:50:54;;;;;;;6.93;3.85;;;;;;;5.34;54.17;97423.16;5020687;28;20057;-78
2023/03/07 12:53:30;;;;;;;7.43;3.60;;;;;;;5.46;53.23;97420.75;5023269;28;20050;-78
2023/03/07 12:56:03;;;;;;;6.45;3.38;;;;;;;5.30;52.57;97433.50;5017797;28;20045;-77
2023/03/07 12:58:38;;;;;;;5.93;3.50;;;;;;;5.31;53.43;97428.94;5022414;28;20064;-78
2023/03/07 13:01:12;;;;;;;5.90;3.35;;;;;;;5.46;53.27;97413.50;5023747;28;20071;-78
2023/03/07 13:03:43;;;;;;;5.55;2.83;;;;;;;5.36;53.14;97418.41;5023324;28;20046;-78
2023/03/07 13:06:17;;;;;;;5.47;2.83;;;;;;;5.32;53.03;97398.28;5021672;28;20052;-78
2023/03/07 13:08:46;;;;;;;4.88;3.38;;;;;;;5.58;52.64;97407.59;5017768;28;20050;-78
2023/03/07 13:11:18;;;;;;;5.80;2.55;;;;;;;5.47;52.61;97382.00;5015638;28;20056;-78
2023/03/07 13:13:54;;;;;;;5.05;2.95;;;;;;;5.59;52.79;97388.53;5022603;28;20061;-77
2023/03/07 13:16:48;;;;;;;12.30;3.90;;;;;;;6.00;53.13;97406.63;5009065;28;20141;-78
2023/03/07 13:19:50;;;;;;;5.63;3.45;;;;;;;6.08;52.29;97412.91;4968794;28;20058;-78
2023/03/07 13:22:59;;;;;;;8.80;3.67;;;;;;;6.25;50.94;97403.47;4992672;28;20058;-78
2023/03/07 13:25:56;;;;;;;7.53;4.32;;;;;;;6.32;50.95;97390.00;5005852;28;20061;-78
2023/03/07 13:28:44;;;;;;;9.05;3.47;;;;;;;6.11;51.93;97399.88;5004741;28;20034;-78
2023/03/07 13:31:27;;;;;;;8.75;3.50;;;;;;;6.19;51.48;97412.38;5002126;28;20053;-78
2023/03/07 13:33:54;;;;;;;8.38;3.33;;;;;;;5.71;51.17;97388.00;5009441;28;20503;-78
2023/03/07 13:36:36;;;;;;;5.15;2.92;;;;;;;5.71;51.51;97393.38;5007554;28;20062;-78
2023/03/07 13:39:04;;;;;;;8.77;3.17;;;;;;;5.84;51.68;97412.31;5001723;28;20133;-78
2023/03/07 13:41:46;;;;;;;14.45;3.03;;;;;;;5.73;52.29;97396.69;5005212;28;20054;-78
2023/03/07 13:44:28;;;;;;;7.47;3.00;;;;;;;5.91;52.59;97410.50;4994738;28;20397;-78
2023/03/07 13:47:01;;;;;;;5.28;3.03;;;;;;;5.77;51.54;97396.09;5003549;28;20049;-78
2023/03/07 13:49:42;;;;;;;5.90;2.88;;;;;;;5.68;52.17;97375.72;5009867;28;20515;-78
2023/03/07 13:52:39;;;;;;;6.70;3.35;;;;;;;5.79;52.73;97404.81;4991929;28;20051;-78
2023/03/07 13:55:19;;;;;;;5.28;2.83;;;;;;;5.86;52.43;97396.78;4990515;28;20504;-77
2023/03/07 13:57:48;;;;;;;7.72;2.92;;;;;;;5.76;52.28;97385.53;4989985;28;20546;-78
2023/03/07 14:00:24;;;;;;;5.78;2.92;;;;;;;5.88;52.86;97413.59;4995427;28;20052;-78
2023/03/07 14:02:53;;;;;;;10.30;2.75;;;;;;;5.78;52.21;97391.53;5008848;28;20049;-78
2023/03/07 14:05:20;;;;;;;9.47;3.50;;;;;;;5.92;52.75;97396.00;5007047;28;20470;-78
2023/03/07 14:07:50;;;;;;;8.07;3.00;;;;;;;6.01;52.02;97391.31;5008215;28;20152;-78
2023/03/07 14:10:18;;;;;;;;;;;;;;;5.96;51.79;97399.97;5009675;28;20049;-78
2023/03/07 14:13:04;;;;;;;5.68;2.72;;;;;;;5.85;51.80;97378.94;4995430;28;19921;-78
2023/03/07 14:15:40;;;;;;;2.83;2.22;;;;;;;5.95;52.30;97397.47;5004060;28;20066;-78
2023/03/07 14:18:22;;;;;;;4.47;2.10;;;;;;;5.94;52.30;97407.41;5009566;28;20070;-77
2023/03/07 14:20:56;;;;;;;5.22;2.70;;;;;;;5.80;52.44;97395.72;5007518;28;20044;-78
2023/03/07 14:23:49;;;;;;;5.00;2.67;;;;;;;5.99;52.11;97418.47;5091760;28;20048;-78
2023/03/07 14:26:19;;;;;;;5.40;2.42;;;;;;;5.96;51.97;97402.66;5013881;28;20050;-77
2023/03/07 14:28:51;;;;;;;7.47;2.88;;;;;;;6.25;51.60;97406.16;5008074;28;20077;-78
2023/03/07 14:31:24;;;;;;;4.53;2.45;;;;;;;6.40;50.83;97383.56;5008799;28;20052;-78
2023/03/07 14:33:53;;;;;;;4.70;2.70;;;;;;;6.53;51.19;97391.72;5003698;28;20054;-78
2023/03/07 14:36:22;;;;;;;4.72;2.80;;;;;;;6.55;50.98;97417.50;4999243;28;20051;-78
2023/03/07 14:38:50;;;;;;;4.72;2.63;;;;;;;6.22;50.97;97397.63;5008801;28;20408;-78
2023/03/07 14:41:35;;;;;;;3.95;2.10;;;;;;;6.06;51.52;97412.28;5003280;28;20049;-78
2023/03/07 14:44:23;;;;;;;5.57;2.75;;;;;;;6.05;52.14;97421.41;5001821;28;20123;-78
2023/03/07 14:47:01;;;;;;;3.88;2.20;;;;;;;5.98;51.80;97427.59;5008374;28;20118;-78
2023/03/07 14:49:37;;;;;;;4.93;2.30;;;;;;;5.87;52.39;97424.59;5003857;28;20050;-78
2023/03/07 14:52:05;;;;;;;5.57;2.78;;;;;;;5.80;53.27;97413.75;5007795;28;20382;-78
2023/03/07 14:54:33;;;;;;;7.65;2.50;;;;;;;5.96;54.02;97426.09;5007970;28;20053;-78
2023/03/07 14:57:01;;;;;;;5.97;3.13;;;;;;;5.90;52.76;97427.75;5006229;28;20053;-78
2023/03/07 14:59:28;;;;;;;7.20;3.83;;;;;;;5.80;53.37;97403.81;4992937;28;20566;-78
2023/03/07 15:01:55;;;;;;;5.45;3.10;;;;;;;6.02;54.30;97419.94;4996875;28;20052;-78
2023/03/07 15:04:25;;;;;;;5.05;2.75;;;;;;;5.96;53.83;97408.06;5008593;28;20058;-78
2023/03/07 15:06:58;;;;;;;4.40;3.03;;;;;;;6.00;54.07;97412.03;5000739;28;20050;-78
2023/03/07 15:09:24;;;;;;;12.13;3.20;;;;;;;6.11;54.15;97409.81;5008626;28;20061;-78
2023/03/07 15:11:58;;;;;;;6.57;3.83;;;;;;;6.02;53.76;97398.34;5006912;28;20086;-78
2023/03/07 15:14:34;;;;;;;10.48;3.28;;;;;;;5.97;53.99;97387.34;5008510;28;20057;-78
2023/03/07 15:17:04;;;;;;;5.03;2.70;;;;;;;5.93;54.43;97413.00;5007912;28;20045;-78
2023/03/07 15:19:37;;;;;;;7.90;3.47;;;;;;;5.88;55.63;97401.97;5008973;28;20155;-78
2023/03/07 15:22:12;;;;;;;7.65;4.05;;;;;;;5.90;55.56;97406.16;5004187;28;20042;-78
2023/03/07 15:24:43;;;;;;;6.20;3.75;;;;;;;5.90;54.66;97405.31;5034217;28;20051;-78
2023/03/07 15:27:13;;;;;;;6.93;2.78;;;;;;;5.99;54.17;97410.38;5077282;28;20051;-78
2023/03/07 15:29:45;;;;;;;5.57;2.97;;;;;;;5.91;54.77;97415.06;5111601;28;20100;-78
2023/03/07 15:32:29;;;;;;;9.05;4.10;;;;;;;5.89;55.20;97411.75;5072016;28;20046;-78
2023/03/07 15:34:59;;;;;;;5.35;3.13;;;;;;;5.79;55.45;97394.03;5005971;28;20489;-78
2023/03/07 15:37:38;;;;;;;;;;;;;;;5.76;55.52;97417.88;5008113;28;20065;-77
2023/03/07 15:40:25;;;;;;;6.47;3.15;;;;;;;5.62;56.30;97416.97;4998949;28;19921;-77
2023/03/07 15:42:54;;;;;;;7.68;3.33;;;;;;;5.30;56.52;97386.88;5016011;28;20057;-77
2023/03/07 15:45:28;;;;;;;7.20;2.90;;;;;;;5.43;56.13;97413.88;4998594;28;20058;-77
2023/03/07 15:47:55;;;;;;;9.65;4.30;;;;;;;5.24;56.78;97411.84;4994145;28;20066;-77
2023/03/07 15:50:23;;;;;;;5.25;3.30;;;;;;;5.22;56.82;97403.16;5003860;28;20046;-78
2023/03/07 15:52:59;;;;;;;10.82;4.07;;;;;;;5.28;57.21;97418.53;4990702;28;20408;-77
2023/03/07 15:55:27;;;;;;;6.93;3.30;;;;;;;5.21;57.80;97404.16;4989540;28;20043;-78
2023/03/07 15:57:55;;;;;;;5.28;3.30;;;;;;;5.25;57.45;97416.22;4996205;28;20046;-78
2023/03/07 16:00:31;;;;;;;8.57;3.22;;;;;;;5.23;57.43;97408.34;5087747;28;20050;-78
2023/03/07 16:03:20;;;;;;;7.82;4.50;;;;;;;5.19;57.64;97417.00;5014150;28;20077;-78
2023/03/07 16:05:46;;;;;;;6.75;3.67;;;;;;;5.19;58.50;97422.41;5008126;28;20103;-78
2023/03/07 16:08:18;;;;;;;7.47;3.50;;;;;;;4.96;58.23;97396.50;4988628;28;20061;-78
2023/03/07 16:10:49;;;;;;;8.80;3.85;;;;;;;5.01;58.96;97423.66;4992816;28;20124;-78
2023/03/07 16:13:18;;;;;;;5.75;3.25;;;;;;;4.89;58.88;97415.28;4995939;28;20050;-78
2023/03/07 16:15:45;;;;;;;10.75;3.65;;;;;;;4.97;59.79;97430.50;5006093;28;20482;-78
2023/03/07 16:18:22;;;;;;;6.78;3.90;;;;;;;4.97;60.03;97427.78;5007056;28;20042;-78
2023/03/07 16:20:48;;;;;;;6.68;3.75;;;;;;;4.86;59.97;97417.50;5007859;28;20245;-78
2023/03/07 16:23:16;;;;;;;10.18;4.40;;;;;;;4.79;60.29;97420.97;5006555;28;20060;-78
2023/03/07 16:25:43;;;;;;;6.70;4.00;;;;;;;4.81;60.19;97434.25;5007086;28;20058;-78
2023/03/07 16:28:12;;;;;;;6.05;3.83;;;;;;;4.75;60.89;97435.00;4993211;28;20058;-78
2023/03/07 16:30:42;;;;;;;9.80;3.97;;;;;;;4.68;61.23;97426.03;4999801;28;20137;-78
2023/03/07 16:33:11;;;;;;;9.13;3.65;;;;;;;4.75;60.90;97440.41;5006129;28;20053;-78
2023/03/07 16:35:38;;;;;;;6.73;4.27;;;;;;;4.60;61.36;97424.28;5007637;28;20050;-78
2023/03/07 16:38:06;;;;;;;9.48;3.95;;;;;;;4.67;61.65;97446.72;5007068;28;20061;-78
2023/03/07 16:40:34;;;;;;;8.52;3.80;;;;;;;4.58;61.95;97435.25;4999817;28;20082;-78
2023/03/07 16:43:01;;;;;;;7.72;3.88;;;;;;;4.50;61.99;97423.75;4998699;28;20061;-78
2023/03/07 16:45:29;;;;;;;6.20;3.80;;;;;;;4.60;62.07;97445.81;5001274;28;20203;-78
2023/03/07 16:47:58;;;;;;;5.88;3.00;;;;;;;4.52;61.17;97441.38;4992726;28;20046;-77
2023/03/07 16:50:26;;;;;;;6.55;3.53;;;;;;;4.42;61.12;97419.31;5007545;28;20050;-77
2023/03/07 16:52:53;;;;;;;10.32;4.05;;;;;;;4.56;61.80;97445.38;5006110;28;20469;-78
2023/03/07 16:55:20;;;;;;;9.30;3.58;;;;;;;4.59;61.75;97447.69;4999167;28;20477;-78
2023/03/07 16:57:50;;;;;;;9.60;3.03;;;;;;;4.46;61.78;97434.06;5005991;28;20137;-78
2023/03/07 17:00:20;;;;;;;8.65;3.90;;;;;;;4.57;61.45;97456.97;5010711;28;20480;-78
2023/03/07 17:02:48;;;;;;;6.85;3.38;;;;;;;4.59;61.76;97461.13;5003729;28;20056;-78
2023/03/07 17:05:16;;;;;;;6.97;4.07;;;;;;;4.41;61.96;97436.47;5010345;28;20046;-78
2023/03/07 17:07:43;;;;;;;8.02;4.18;;;;;;;4.54;62.59;97466.22;5008127;28;20054;-78
2023/03/07 17:10:11;;;;;;;8.07;4.07;;;;;;;4.51;62.46;97455.84;5006581;28;20046;-78
2023/03/07 17:12:37;;;;;;;12.02;4.53;;;;;;;4.39;62.43;97435.81;5009464;28;20070;-78
2023/03/07 17:15:07;;;;;;;9.50;4.53;;;;;;;4.45;61.90;97455.78;5010558;28;20065;-77
2023/03/07 17:17:36;;;;;;;14.20;5.80;;;;;;;4.36;61.98;97441.59;5009937;28;20527;-78
2023/03/07 17:20:05;;;;;;;6.88;4.00;;;;;;;4.47;62.20;97464.47;5000722;28;20050;-78
2023/03/07 17:22:32;;;;;;;7.80;3.78;;;;;;;4.44;61.87;97460.31;5006686;28;20646;-77
2023/03/07 17:24:59;;;;;;;7.93;4.25;;;;;;;4.49;61.85;97465.16;5004720;28;20223;-78
2023/03/07 17:27:26;;;;;;;8.85;4.88;;;;;;;4.44;62.12;97468.38;4991042;28;20085;-78
2023/03/07 17:29:53;;;;;;;10.70;4.25;;;;;;;4.34;62.18;97457.09;4990884;28;20501;-78
2023/03/07 17:32:21;;;;;;;9.63;4.40;;;;;;;4.47;62.05;97477.94;4990103;28;20057;-78
2023/03/07 17:34:48;;;;;;;9.40;5.10;;;;;;;4.41;62.35;97480.38;4996802;28;20050;-78
2023/03/07 17:37:15;;;;;;;8.27;4.50;;;;;;;4.30;62.06;97455.78;5005072;28;20177;-77
2023/03/07 17:39:42;;;;;;;8.30;4.13;;;;;;;4.41;62.14;97479.50;5001821;28;20519;-78
2023/03/07 17:42:09;;;;;;;12.23;5.28;;;;;;;4.32;62.42;97477.94;5007548;28;20062;-78
2023/03/07 17:44:35;;;;;;;9.20;3.95;;;;;;;4.28;61.96;97457.84;5003165;28;20054;-78
